Roseboro, North Carolina
Current Conditions -  °F | °C
As of 2:55 AM on Sunday 26 Oct 2014 (Local Time) from KCTZ Reporting Station
Clear Clear  
Wind Chill: 53°   Ceiling: Unl
Heat Index: 53°   Visibility: 10mi
Dew Point: 46°   Wind: 0mph
Humidity: 76%   Direction: NA
Pressure: 29.86"   Gusts: NA
Location:  34.95°N, 78.51°W
Report Text: KCTZ 260655Z AUTO 00000KT 10SM CLR 12/08 A2986 RMK AO2 T01150075
Loading
Personal Weather Stations






























Interactive Weather Map
Tropical Storm Tracking
New forecast layout! Learn more

10-Day Weather Forecast

Advertisements
Track Severe Weather on mobile